Hauptseite
METAR-TAF:

METAR-TAF

Flughäfen :

Amman, Jordanien

Flughafen Marka International

Breite: 31-59N, Länge: 035-59E, Höhe: 767 m

Beobachtung

Neuester Wetterbericht von vor 25 Minuten, um 05:00 UTC
Wind 3 kt aus West
Temperatur 11°C
Luftfeuchtigkeit 58%
Luftdruck 1017 hPa
Sichtweite: 2500 m
trockener Dunst

METAR: OJAM 260500Z 27003KT 2500 HZ NSC 11/03 Q1017 NOSIG

Zeit: 07:25 (05:25 UTC)

Prognose

Neuester Wetterbericht von vor 6 Stunden und 35 Minuten, um 22:50 UTC
Gültige Prognose vom 26 um 00 UTC bis 27 um 06 UTC
Wind 2 kt aus unterschiedlichen Richtungen
Sichtweite: 6000 m
Wahrscheinlichkeit 30%
vom 26 um 02 UTC bis 26 um 06 UTC
Sichtweite: 3000 m
Rauch
Übergehend zu
vom 26 um 06 UTC bis 26 um 08 UTC
Wind 10 kt aus West/Südwest
Sichtweite: 5000 m
Leicht bewölkt in der Höhe von 3500 ft
trockener Dunst

TAF: OJAM 252250Z 2600/2706 VRB02KT 6000 NSC PROB30 2602/2606 3000 FU BECMG 2606/2608 25010KT 5000 HZ FEW035

Wetterbeobachtungen und Prognosen von mehr als 4000 Flughäfen (METAR und TAF Bericht).

Die verfügbaren Stationen werden durch gelbe und rote Markierungen auf der Karte dargestellt.

Führen Sie die Maus auf sie, um den Namen der Station zu sehen.

Darauf klicken, um die Beobachtung von Wetterbeobachtungen und Prognosen zu sehen.

Um die Karte zu ändern : klicken Sie auf den grünen Tasten mit einem schwarzen Kreuz Zum Vergrößern, auf den grünen Button mit einem Gedankenstrich zu verkleinern, oder auf die grünen Pfeile für benachbarte Karten.


METAR-TAF: